^^
Station Historical Data
Daily Summary for February 16, 2018 Units:  Both    English   Metric
« Previous Day
Next Day »
Daily Weekly Monthly Yearly Custom
  High: Low: Average:
Temperature: TemperatureF °F /  -17.8 °C 66.0 °F /  18.9 °C 74.4 °F /  23.6 °C
Dew Point: DewpointF °F /  -17.8 °C 30.7 °F /  -0.7 °C 36 °F /  2.2 °C
Humidity: Humidity% 18% 25%
Wind Speed: WindSpeedMPHmph /  0km/h - -3.7mph /  -6km/h
Wind Gust: WindSpeedGustMPHmph /  0km/h - -
Wind- - NE
Pressure: PressureIn in /  0 hPa 29.59 in /  1001.9 hPa -
Precipitation: 0.00 in /  0 mm    
Historical Graphs
 
 
Tabular Data for February 16, 2018
Time Temperature Dew Point Pressure Wind Wind Speed Wind Gust Humidity Rainfall Rate (Hourly) solar Conditions
TemperatureF °F /  -17.8 °C DewpointF °F /  -17.8 °C PressureInin /  0hPa Calm     Humidity% HourlyPrecipInin /  0mm SoftwareType W/m2 Conditions
08:26 66.0 °F /  18.9 °C 37.6 °F /  3.1 °C 29.62in /  1002.9hPa NNE 0.9mph /  1.4km/h 2.0mph /  3.2km/h 35% 0.00in /  0mm meteobridge W/m2
08:32 66.9 °F /  19.4 °C 36.9 °F /  2.7 °C 29.62in /  1002.9hPa NNE 0.9mph /  1.4km/h 3.0mph /  4.8km/h 33% 0.00in /  0mm meteobridge W/m2
08:38 67.3 °F /  19.6 °C 37.9 °F /  3.3 °C 29.62in /  1002.9hPa Calm   3.0mph /  4.8km/h 34% 0.00in /  0mm meteobridge W/m2
08:44 67.8 °F /  19.9 °C 37.6 °F /  3.1 °C 29.62in /  1002.9hPa NNE 0.9mph /  1.4km/h 2.0mph /  3.2km/h 33% 0.00in /  0mm meteobridge W/m2
08:50 68.5 °F /  20.3 °C 38.3 °F /  3.5 °C 29.62in /  1002.9hPa NNE 0.9mph /  1.4km/h 3.0mph /  4.8km/h 33% 0.00in /  0mm meteobridge W/m2
08:57 69.1 °F /  20.6 °C 37.9 °F /  3.3 °C 29.62in /  1002.9hPa Calm   2.0mph /  3.2km/h 32% 0.00in /  0mm meteobridge W/m2
09:03 69.6 °F /  20.9 °C 39.2 °F /  4 °C 29.63in /  1003.3hPa NNW 2.9mph /  4.7km/h 5.0mph /  8km/h 33% 0.00in /  0mm meteobridge W/m2
09:09 68.9 °F /  20.5 °C 38.7 °F /  3.7 °C 29.63in /  1003.3hPa North 2.9mph /  4.7km/h 3.0mph /  4.8km/h 33% 0.00in /  0mm meteobridge W/m2
09:15 69.1 °F /  20.6 °C 39.6 °F /  4.2 °C 29.63in /  1003.3hPa Calm   2.0mph /  3.2km/h 34% 0.00in /  0mm meteobridge W/m2
09:21 69.6 °F /  20.9 °C 38.5 °F /  3.6 °C 29.63in /  1003.3hPa NNE 2.9mph /  4.7km/h 3.0mph /  4.8km/h 32% 0.00in /  0mm meteobridge W/m2
09:28 70.3 °F /  21.3 °C 37.4 °F /  3 °C 29.63in /  1003.3hPa NNE 0.9mph /  1.4km/h 1.0mph /  1.6km/h 30% 0.00in /  0mm meteobridge W/m2
09:34 70.0 °F /  21.1 °C 36.3 °F /  2.4 °C 29.62in /  1002.9hPa South 0.9mph /  1.4km/h 5.0mph /  8km/h 29% 0.00in /  0mm meteobridge W/m2
09:40 70.0 °F /  21.1 °C 35.4 °F /  1.9 °C 29.63in /  1003.3hPa SSE 0.9mph /  1.4km/h 4.0mph /  6.4km/h 28% 0.00in /  0mm meteobridge W/m2
09:47 70.7 °F /  21.5 °C 36.9 °F /  2.7 °C 29.63in /  1003.3hPa Calm   2.0mph /  3.2km/h 29% 0.00in /  0mm meteobridge W/m2
09:53 71.8 °F /  22.1 °C 37.8 °F /  3.2 °C 29.63in /  1003.3hPa SSW 4.0mph /  6.4km/h 6.0mph /  9.7km/h 29% 0.00in /  0mm meteobridge W/m2
09:59 71.8 °F /  22.1 °C 37.8 °F /  3.2 °C 29.63in /  1003.3hPa Calm   2.0mph /  3.2km/h 29% 0.00in /  0mm meteobridge W/m2
10:05 72.1 °F /  22.3 °C 39.0 °F /  3.9 °C 29.63in /  1003.3hPa NNW 2.0mph /  3.2km/h 7.0mph /  11.3km/h 30% 0.00in /  0mm meteobridge W/m2
10:11 72.0 °F /  22.2 °C 40.5 °F /  4.7 °C 29.63in /  1003.3hPa NE 2.9mph /  4.7km/h 6.0mph /  9.7km/h 32% 0.00in /  0mm meteobridge W/m2
10:17 71.6 °F /  22 °C 40.1 °F /  4.5 °C 29.62in /  1002.9hPa NE 6.0mph /  9.7km/h 10.0mph /  16.1km/h 32% 0.00in /  0mm meteobridge W/m2
10:23 72.0 °F /  22.2 °C 40.5 °F /  4.7 °C 29.63in /  1003.3hPa NNE 8.9mph /  14.3km/h 11.0mph /  17.7km/h 32% 0.00in /  0mm meteobridge W/m2
10:29 72.0 °F /  22.2 °C 39.7 °F /  4.3 °C 29.63in /  1003.3hPa NE 4.9mph /  7.9km/h 10.0mph /  16.1km/h 31% 0.00in /  0mm meteobridge W/m2
10:35 72.3 °F /  22.4 °C 39.2 °F /  4 °C 29.63in /  1003.3hPa NNE 6.9mph /  11.1km/h 11.0mph /  17.7km/h 30% 0.00in /  0mm meteobridge W/m2
10:41 72.7 °F /  22.6 °C 40.3 °F /  4.6 °C 29.63in /  1003.3hPa NE 4.9mph /  7.9km/h 6.0mph /  9.7km/h 31% 0.00in /  0mm meteobridge W/m2
10:47 73.0 °F /  22.8 °C 40.6 °F /  4.8 °C 29.63in /  1003.3hPa East 6.0mph /  9.7km/h 11.0mph /  17.7km/h 31% 0.00in /  0mm meteobridge W/m2
10:53 73.4 °F /  23 °C 42.6 °F /  5.9 °C 29.63in /  1003.3hPa ESE 2.9mph /  4.7km/h 9.0mph /  14.5km/h 33% 0.00in /  0mm meteobridge W/m2
11:00 74.5 °F /  23.6 °C 41.9 °F /  5.5 °C 29.63in /  1003.3hPa SSE 2.0mph /  3.2km/h 5.0mph /  8km/h 31% 0.00in /  0mm meteobridge W/m2
11:06 75.4 °F /  24.1 °C 42.6 °F /  5.9 °C 29.63in /  1003.3hPa SSE 2.9mph /  4.7km/h 5.0mph /  8km/h 31% 0.00in /  0mm meteobridge W/m2
11:12 74.3 °F /  23.5 °C 41.7 °F /  5.4 °C 29.63in /  1003.3hPa SSE 8.9mph /  14.3km/h 11.0mph /  17.7km/h 31% 0.00in /  0mm meteobridge W/m2
11:17 73.8 °F /  23.2 °C 41.2 °F /  5.1 °C 29.63in /  1003.3hPa SSW 6.0mph /  9.7km/h 8.0mph /  12.9km/h 31% 0.00in /  0mm meteobridge W/m2
11:23 74.8 °F /  23.8 °C 40.5 °F /  4.7 °C 29.63in /  1003.3hPa SSE 10.1mph /  16.3km/h 10.1mph /  16.3km/h 29% 0.00in /  0mm meteobridge W/m2
11:29 73.4 °F /  23 °C 39.2 °F /  4 °C 29.63in /  1003.3hPa SSW 6.9mph /  11.1km/h 10.0mph /  16.1km/h 29% 0.00in /  0mm meteobridge W/m2
11:35 73.4 °F /  23 °C 38.3 °F /  3.5 °C 29.63in /  1003.3hPa Calm   15.0mph /  24.1km/h 28% 0.00in /  0mm meteobridge W/m2
11:41 73.8 °F /  23.2 °C 39.6 °F /  4.2 °C 29.63in /  1003.3hPa SSW 6.0mph /  9.7km/h 10.0mph /  16.1km/h 29% 0.00in /  0mm meteobridge W/m2
11:47 74.7 °F /  23.7 °C 40.3 °F /  4.6 °C 29.63in /  1003.3hPa SSE 6.0mph /  9.7km/h 12.0mph /  19.3km/h 29% 0.00in /  0mm meteobridge W/m2
11:53 73.9 °F /  23.3 °C 39.7 °F /  4.3 °C 29.63in /  1003.3hPa South 6.9mph /  11.1km/h 10.0mph /  16.1km/h 29% 0.00in /  0mm meteobridge W/m2
12:00 73.8 °F /  23.2 °C 38.7 °F /  3.7 °C 29.64in /  1003.6hPa South 16.1mph /  25.9km/h 16.1mph /  25.9km/h 28% 0.00in /  0mm meteobridge W/m2
12:06 73.4 °F /  23 °C 39.2 °F /  4 °C 29.64in /  1003.6hPa SSW 6.9mph /  11.1km/h 10.0mph /  16.1km/h 29% 0.00in /  0mm meteobridge W/m2
12:12 73.4 °F /  23 °C 37.4 °F /  3 °C 29.63in /  1003.3hPa ESE 4.9mph /  7.9km/h 13.0mph /  20.9km/h 27% 0.00in /  0mm meteobridge W/m2
12:18 74.8 °F /  23.8 °C 38.7 °F /  3.7 °C 29.63in /  1003.3hPa ESE 6.0mph /  9.7km/h 12.0mph /  19.3km/h 27% 0.00in /  0mm meteobridge W/m2
12:24 76.1 °F /  24.5 °C 38.7 °F /  3.7 °C 29.63in /  1003.3hPa NNE 12.1mph /  19.5km/h 12.1mph /  19.5km/h 26% 0.00in /  0mm meteobridge W/m2
12:30 75.9 °F /  24.4 °C 38.7 °F /  3.7 °C 29.63in /  1003.3hPa NE 6.0mph /  9.7km/h 11.0mph /  17.7km/h 26% 0.00in /  0mm meteobridge W/m2
12:36 76.8 °F /  24.9 °C 38.3 °F /  3.5 °C 29.63in /  1003.3hPa NE 4.0mph /  6.4km/h 10.0mph /  16.1km/h 25% 0.00in /  0mm meteobridge W/m2
12:43 77.7 °F /  25.4 °C 41.0 °F /  5 °C 29.63in /  1003.3hPa SE 4.9mph /  7.9km/h 7.0mph /  11.3km/h 27% 0.00in /  0mm meteobridge W/m2
12:49 75.9 °F /  24.4 °C 40.5 °F /  4.7 °C 29.63in /  1003.3hPa East 6.0mph /  9.7km/h 7.0mph /  11.3km/h 28% 0.00in /  0mm meteobridge W/m2
12:55 76.6 °F /  24.8 °C 42.1 °F /  5.6 °C 29.63in /  1003.3hPa ESE 2.0mph /  3.2km/h 6.0mph /  9.7km/h 29% 0.00in /  0mm meteobridge W/m2
13:01 77.0 °F /  25 °C 41.4 °F /  5.2 °C 29.62in /  1002.9hPa SE 8.9mph /  14.3km/h 11.0mph /  17.7km/h 28% 0.00in /  0mm meteobridge W/m2
13:07 77.0 °F /  25 °C 40.5 °F /  4.7 °C 29.63in /  1003.3hPa SSW 6.9mph /  11.1km/h 11.0mph /  17.7km/h 27% 0.00in /  0mm meteobridge W/m2
13:13 76.8 °F /  24.9 °C 39.4 °F /  4.1 °C 29.62in /  1002.9hPa SSE 11.0mph /  17.7km/h 17.0mph /  27.4km/h 26% 0.00in /  0mm meteobridge W/m2
13:20 76.3 °F /  24.6 °C 40.8 °F /  4.9 °C 29.62in /  1002.9hPa ENE 2.9mph /  4.7km/h 7.0mph /  11.3km/h 28% 0.00in /  0mm meteobridge W/m2
13:26 77.2 °F /  25.1 °C 40.6 °F /  4.8 °C 29.61in /  1002.6hPa ESE 6.9mph /  11.1km/h 15.0mph /  24.1km/h 27% 0.00in /  0mm meteobridge W/m2
13:32 77.7 °F /  25.4 °C 39.0 °F /  3.9 °C 29.61in /  1002.6hPa SSW 6.0mph /  9.7km/h 6.0mph /  9.7km/h 25% 0.00in /  0mm meteobridge W/m2
13:38 77.4 °F /  25.2 °C 37.8 °F /  3.2 °C 29.61in /  1002.6hPa South 10.1mph /  16.3km/h 15.0mph /  24.1km/h 24% 0.00in /  0mm meteobridge W/m2
13:44 77.2 °F /  25.1 °C 39.6 °F /  4.2 °C 29.61in /  1002.6hPa SSE 2.0mph /  3.2km/h 11.0mph /  17.7km/h 26% 0.00in /  0mm meteobridge W/m2
13:50 78.4 °F /  25.8 °C 39.7 °F /  4.3 °C 29.61in /  1002.6hPa WNW 4.0mph /  6.4km/h 9.0mph /  14.5km/h 25% 0.00in /  0mm meteobridge W/m2
13:56 76.8 °F /  24.9 °C 35.1 °F /  1.7 °C 29.61in /  1002.6hPa South 13.0mph /  20.9km/h 19.0mph /  30.6km/h 22% 0.00in /  0mm meteobridge W/m2
14:02 75.0 °F /  23.9 °C 35.8 °F /  2.1 °C 29.61in /  1002.6hPa South 4.0mph /  6.4km/h 12.0mph /  19.3km/h 24% 0.00in /  0mm meteobridge W/m2
14:08 75.9 °F /  24.4 °C 35.4 °F /  1.9 °C 29.60in /  1002.3hPa South 4.9mph /  7.9km/h 11.0mph /  17.7km/h 23% 0.00in /  0mm meteobridge W/m2
14:15 77.4 °F /  25.2 °C 37.8 °F /  3.2 °C 29.59in /  1001.9hPa SSE 16.1mph /  25.9km/h 16.1mph /  25.9km/h 24% 0.00in /  0mm meteobridge W/m2
14:21 77.7 °F /  25.4 °C 33.4 °F /  0.8 °C 29.61in /  1002.6hPa SSW 6.0mph /  9.7km/h 20.0mph /  32.2km/h 20% 0.00in /  0mm meteobridge W/m2
14:27 75.9 °F /  24.4 °C 32.0 °F /  0 °C 29.60in /  1002.3hPa South 12.1mph /  19.5km/h 16.0mph /  25.7km/h 20% 0.00in /  0mm meteobridge W/m2
14:33 77.5 °F /  25.3 °C 35.8 °F /  2.1 °C 29.60in /  1002.3hPa SSW 6.9mph /  11.1km/h 7.0mph /  11.3km/h 22% 0.00in /  0mm meteobridge W/m2
14:39 77.4 °F /  25.2 °C 34.3 °F /  1.3 °C 29.59in /  1001.9hPa ESE 2.9mph /  4.7km/h 7.0mph /  11.3km/h 21% 0.00in /  0mm meteobridge W/m2
14:45 78.6 °F /  25.9 °C 32.9 °F /  0.5 °C 29.60in /  1002.3hPa NNE 2.0mph /  3.2km/h 11.0mph /  17.7km/h 19% 0.00in /  0mm meteobridge W/m2
14:51 79.3 °F /  26.3 °C 33.4 °F /  0.8 °C 29.59in /  1001.9hPa South 10.1mph /  16.3km/h 19.0mph /  30.6km/h 19% 0.00in /  0mm meteobridge W/m2
14:57 76.8 °F /  24.9 °C 32.7 °F /  0.4 °C 29.60in /  1002.3hPa SE 14.1mph /  22.7km/h 19.0mph /  30.6km/h 20% 0.00in /  0mm meteobridge W/m2
15:03 76.3 °F /  24.6 °C 33.4 °F /  0.8 °C 29.60in /  1002.3hPa South 0.9mph /  1.4km/h 7.0mph /  11.3km/h 21% 0.00in /  0mm meteobridge W/m2
15:10 77.7 °F /  25.4 °C 34.7 °F /  1.5 °C 29.60in /  1002.3hPa South 11.0mph /  17.7km/h 17.0mph /  27.4km/h 21% 0.00in /  0mm meteobridge W/m2
15:16 77.5 °F /  25.3 °C 33.3 °F /  0.7 °C 29.60in /  1002.3hPa South 12.1mph /  19.5km/h 19.0mph /  30.6km/h 20% 0.00in /  0mm meteobridge W/m2
15:22 76.3 °F /  24.6 °C 32.2 °F /  0.1 °C 29.61in /  1002.6hPa SSW 10.1mph /  16.3km/h 20.0mph /  32.2km/h 20% 0.00in /  0mm meteobridge W/m2
15:28 76.1 °F /  24.5 °C 33.3 °F /  0.7 °C 29.60in /  1002.3hPa SSE 10.1mph /  16.3km/h 15.0mph /  24.1km/h 21% 0.00in /  0mm meteobridge W/m2
15:34 76.6 °F /  24.8 °C 33.8 °F /  1 °C 29.60in /  1002.3hPa SSW 17.0mph /  27.4km/h 17.0mph /  27.4km/h 21% 0.00in /  0mm meteobridge W/m2
15:40 77.2 °F /  25.1 °C 34.2 °F /  1.2 °C 29.61in /  1002.6hPa South 6.0mph /  9.7km/h 13.0mph /  20.9km/h 21% 0.00in /  0mm meteobridge W/m2
15:46 78.6 °F /  25.9 °C 35.4 °F /  1.9 °C 29.61in /  1002.6hPa SSE 12.1mph /  19.5km/h 14.0mph /  22.5km/h 21% 0.00in /  0mm meteobridge W/m2
15:52 78.1 °F /  25.6 °C 33.8 °F /  1 °C 29.61in /  1002.6hPa South 6.9mph /  11.1km/h 13.0mph /  20.9km/h 20% 0.00in /  0mm meteobridge W/m2
16:13 79.3 °F /  26.3 °C 33.4 °F /  0.8 °C 29.60in /  1002.3hPa SSE 4.0mph /  6.4km/h 17.0mph /  27.4km/h 19% 0.00in /  0mm meteobridge W/m2
16:19 79.2 °F /  26.2 °C 33.4 °F /  0.8 °C 29.60in /  1002.3hPa South 6.0mph /  9.7km/h 13.0mph /  20.9km/h 19% 0.00in /  0mm meteobridge W/m2
16:25 78.3 °F /  25.7 °C 32.5 °F /  0.3 °C 29.60in /  1002.3hPa South 4.0mph /  6.4km/h 8.0mph /  12.9km/h 19% 0.00in /  0mm meteobridge W/m2
16:48 79.2 °F /  26.2 °C 34.7 °F /  1.5 °C 29.60in /  1002.3hPa SSE 6.0mph /  9.7km/h 12.0mph /  19.3km/h 20% 0.00in /  0mm meteobridge W/m2
16:54 79.2 °F /  26.2 °C 34.7 °F /  1.5 °C 29.60in /  1002.3hPa South 2.9mph /  4.7km/h 11.0mph /  17.7km/h 20% 0.00in /  0mm meteobridge W/m2
17:00 79.5 °F /  26.4 °C 33.6 °F /  0.9 °C 29.61in /  1002.6hPa SW 11.0mph /  17.7km/h 13.0mph /  20.9km/h 19% 0.00in /  0mm meteobridge W/m2
17:06 78.6 °F /  25.9 °C 32.9 °F /  0.5 °C 29.60in /  1002.3hPa SSE 6.9mph /  11.1km/h 17.0mph /  27.4km/h 19% 0.00in /  0mm meteobridge W/m2
17:12 78.6 °F /  25.9 °C 32.9 °F /  0.5 °C 29.61in /  1002.6hPa SSW 10.1mph /  16.3km/h 11.0mph /  17.7km/h 19% 0.00in /  0mm meteobridge W/m2
17:20 78.3 °F /  25.7 °C 31.3 °F /  -0.4 °C 29.61in /  1002.6hPa SW 0.9mph /  1.4km/h 8.0mph /  12.9km/h 18% 0.00in /  0mm meteobridge W/m2
17:26 78.6 °F /  25.9 °C 32.9 °F /  0.5 °C 29.61in /  1002.6hPa South 4.0mph /  6.4km/h 7.0mph /  11.3km/h 19% 0.00in /  0mm meteobridge W/m2
17:32 78.8 °F /  26 °C 33.1 °F /  0.6 °C 29.61in /  1002.6hPa SW 0.9mph /  1.4km/h 4.0mph /  6.4km/h 19% 0.00in /  0mm meteobridge W/m2
17:37 78.8 °F /  26 °C 31.6 °F /  -0.2 °C 29.61in /  1002.6hPa South 6.0mph /  9.7km/h 10.0mph /  16.1km/h 18% 0.00in /  0mm meteobridge W/m2
17:43 79.0 °F /  26.1 °C 34.5 °F /  1.4 °C 29.61in /  1002.6hPa South 2.9mph /  4.7km/h 11.0mph /  17.7km/h 20% 0.00in /  0mm meteobridge W/m2
17:49 78.8 °F /  26 °C 33.1 °F /  0.6 °C 29.61in /  1002.6hPa South 2.9mph /  4.7km/h 12.0mph /  19.3km/h 19% 0.00in /  0mm meteobridge W/m2
17:55 78.4 °F /  25.8 °C 32.7 °F /  0.4 °C 29.61in /  1002.6hPa SSW 6.0mph /  9.7km/h 11.0mph /  17.7km/h 19% 0.00in /  0mm meteobridge W/m2
18:01 77.7 °F /  25.4 °C 34.7 °F /  1.5 °C 29.61in /  1002.6hPa SSW 6.0mph /  9.7km/h 8.0mph /  12.9km/h 21% 0.00in /  0mm meteobridge W/m2
18:07 77.5 °F /  25.3 °C 32.0 °F /  0 °C 29.61in /  1002.6hPa SSE 6.9mph /  11.1km/h 11.0mph /  17.7km/h 19% 0.00in /  0mm meteobridge W/m2
18:13 77.7 °F /  25.4 °C 32.2 °F /  0.1 °C 29.62in /  1002.9hPa SSW 6.9mph /  11.1km/h 10.0mph /  16.1km/h 19% 0.00in /  0mm meteobridge W/m2
18:19 77.5 °F /  25.3 °C 32.0 °F /  0 °C 29.62in /  1002.9hPa SSE 4.0mph /  6.4km/h 12.0mph /  19.3km/h 19% 0.00in /  0mm meteobridge W/m2
18:25 77.5 °F /  25.3 °C 33.3 °F /  0.7 °C 29.62in /  1002.9hPa South 10.1mph /  16.3km/h 11.0mph /  17.7km/h 20% 0.00in /  0mm meteobridge W/m2
18:31 77.2 °F /  25.1 °C 34.2 °F /  1.2 °C 29.62in /  1002.9hPa SSE 2.9mph /  4.7km/h 9.0mph /  14.5km/h 21% 0.00in /  0mm meteobridge W/m2
18:37 76.8 °F /  24.9 °C 32.7 °F /  0.4 °C 29.62in /  1002.9hPa South 10.1mph /  16.3km/h 11.0mph /  17.7km/h 20% 0.00in /  0mm meteobridge W/m2
18:44 76.5 °F /  24.7 °C 32.4 °F /  0.2 °C 29.63in /  1003.3hPa South 8.1mph /  13km/h 9.0mph /  14.5km/h 20% 0.00in /  0mm meteobridge W/m2
18:50 75.9 °F /  24.4 °C 30.7 °F /  -0.7 °C 29.63in /  1003.3hPa South 4.9mph /  7.9km/h 10.0mph /  16.1km/h 19% 0.00in /  0mm meteobridge W/m2
18:56 75.6 °F /  24.2 °C 34.0 °F /  1.1 °C 29.63in /  1003.3hPa SSE 4.9mph /  7.9km/h 7.0mph /  11.3km/h 22% 0.00in /  0mm meteobridge W/m2
19:02 74.8 °F /  23.8 °C 32.4 °F /  0.2 °C 29.63in /  1003.3hPa SSE 8.1mph /  13km/h 14.0mph /  22.5km/h 21% 0.00in /  0mm meteobridge W/m2
19:08 73.9 °F /  23.3 °C 32.7 °F /  0.4 °C 29.63in /  1003.3hPa South 4.0mph /  6.4km/h 9.0mph /  14.5km/h 22% 0.00in /  0mm meteobridge W/m2
19:14 73.4 °F /  23 °C 32.2 °F /  0.1 °C 29.63in /  1003.3hPa South 4.9mph /  7.9km/h 9.0mph /  14.5km/h 22% 0.00in /  0mm meteobridge W/m2
19:20 72.7 °F /  22.6 °C 31.6 °F /  -0.2 °C 29.64in /  1003.6hPa SSE 8.9mph /  14.3km/h 10.0mph /  16.1km/h 22% 0.00in /  0mm meteobridge W/m2
19:26 72.5 °F /  22.5 °C 31.5 °F /  -0.3 °C 29.64in /  1003.6hPa South 6.9mph /  11.1km/h 7.0mph /  11.3km/h 22% 0.00in /  0mm meteobridge W/m2
19:34 72.5 °F /  22.5 °C 31.5 °F /  -0.3 °C 29.65in /  1003.9hPa South 6.9mph /  11.1km/h -999.0mph /  -1607.7km/h 22% 0.00in /  0mm meteobridge W/m2
19:40 72.5 °F /  22.5 °C 31.5 °F /  -0.3 °C 29.64in /  1003.6hPa North -999.9mph /  -1609.1km/h -999.0mph /  -1607.7km/h 22% 0.00in /  0mm meteobridge W/m2
Regenstein, Windhoek, Namibia
Compliments of Weather Underground - 2.5 mb